sensor_id;sensor_type;location;lat;lon;timestamp;pressure;altitude;pressure_sealevel;temperature;humidity
44979;BME280;67464;52.438;-1.904;2023-03-18T00:02:22;98850.84;;;8.24;100.00
44979;BME280;67464;52.438;-1.904;2023-03-18T00:04:51;98847.74;;;9.44;100.00
44979;BME280;67464;52.438;-1.904;2023-03-18T00:07:19;98847.65;;;9.34;100.00
44979;BME280;67464;52.438;-1.904;2023-03-18T00:09:31;98851.11;;;8.64;100.00
44979;BME280;67464;52.438;-1.904;2023-03-18T00:12:05;98849.34;;;8.76;100.00
44979;BME280;67464;52.438;-1.904;2023-03-18T00:14:26;98854.09;;;8.33;100.00
44979;BME280;67464;52.438;-1.904;2023-03-18T00:16:49;98851.32;;;8.22;100.00
44979;BME280;67464;52.438;-1.904;2023-03-18T00:19:14;98853.71;;;9.52;100.00
44979;BME280;67464;52.438;-1.904;2023-03-18T00:21:38;98853.10;;;10.15;100.00
44979;BME280;67464;52.438;-1.904;2023-03-18T00:24:04;98857.90;;;9.67;100.00
44979;BME280;67464;52.438;-1.904;2023-03-18T00:26:29;98858.20;;;10.14;100.00
44979;BME280;67464;52.438;-1.904;2023-03-18T00:28:56;98856.39;;;10.30;100.00
44979;BME280;67464;52.438;-1.904;2023-03-18T00:31:20;98859.89;;;9.20;100.00
44979;BME280;67464;52.438;-1.904;2023-03-18T00:33:45;98859.07;;;8.85;100.00
44979;BME280;67464;52.438;-1.904;2023-03-18T00:36:11;98859.98;;;8.28;100.00
44979;BME280;67464;52.438;-1.904;2023-03-18T00:38:36;98862.77;;;9.22;100.00
44979;BME280;67464;52.438;-1.904;2023-03-18T00:41:01;98858.54;;;8.87;100.00
44979;BME280;67464;52.438;-1.904;2023-03-18T00:43:27;98857.84;;;9.53;100.00
44979;BME280;67464;52.438;-1.904;2023-03-18T00:45:51;98853.77;;;9.38;100.00
44979;BME280;67464;52.438;-1.904;2023-03-18T00:48:17;98858.37;;;9.04;100.00
44979;BME280;67464;52.438;-1.904;2023-03-18T00:50:42;98857.15;;;8.88;100.00
44979;BME280;67464;52.438;-1.904;2023-03-18T00:53:07;98859.22;;;8.22;100.00
44979;BME280;67464;52.438;-1.904;2023-03-18T00:55:33;98861.64;;;8.53;100.00
44979;BME280;67464;52.438;-1.904;2023-03-18T00:57:58;98857.63;;;8.39;100.00
44979;BME280;67464;52.438;-1.904;2023-03-18T01:00:23;98862.79;;;8.70;100.00
44979;BME280;67464;52.438;-1.904;2023-03-18T01:02:49;98861.29;;;8.32;100.00
44979;BME280;67464;52.438;-1.904;2023-03-18T01:05:15;98860.15;;;8.50;100.00
44979;BME280;67464;52.438;-1.904;2023-03-18T01:07:39;98859.22;;;8.54;100.00
44979;BME280;67464;52.438;-1.904;2023-03-18T01:10:06;98860.03;;;8.16;100.00
44979;BME280;67464;52.438;-1.904;2023-03-18T01:12:30;98861.06;;;7.67;100.00
44979;BME280;67464;52.438;-1.904;2023-03-18T01:14:55;98852.99;;;8.59;100.00
44979;BME280;67464;52.438;-1.904;2023-03-18T01:17:21;98854.38;;;9.39;100.00
44979;BME280;67464;52.438;-1.904;2023-03-18T01:19:47;98852.77;;;9.08;100.00
44979;BME280;67464;52.438;-1.904;2023-03-18T01:22:12;98849.88;;;8.42;100.00
44979;BME280;67464;52.438;-1.904;2023-03-18T01:24:38;98854.84;;;7.78;100.00
44979;BME280;67464;52.438;-1.904;2023-03-18T01:27:03;98853.30;;;8.05;100.00
44979;BME280;67464;52.438;-1.904;2023-03-18T01:29:28;98850.75;;;8.91;100.00
44979;BME280;67464;52.438;-1.904;2023-03-18T01:31:53;98852.95;;;8.48;100.00
44979;BME280;67464;52.438;-1.904;2023-03-18T01:34:19;98854.51;;;8.38;100.00
44979;BME280;67464;52.438;-1.904;2023-03-18T01:36:44;98853.44;;;8.00;100.00
44979;BME280;67464;52.438;-1.904;2023-03-18T01:39:10;98851.05;;;8.53;100.00
44979;BME280;67464;52.438;-1.904;2023-03-18T01:41:36;98850.67;;;8.01;100.00
44979;BME280;67464;52.438;-1.904;2023-03-18T01:44:01;98849.59;;;8.14;100.00
44979;BME280;67464;52.438;-1.904;2023-03-18T01:46:33;98844.67;;;9.56;100.00
44979;BME280;67464;52.438;-1.904;2023-03-18T01:48:52;98840.33;;;8.66;100.00
44979;BME280;67464;52.438;-1.904;2023-03-18T01:51:18;98839.87;;;9.30;100.00
44979;BME280;67464;52.438;-1.904;2023-03-18T01:53:46;98839.89;;;9.30;100.00
44979;BME280;67464;52.438;-1.904;2023-03-18T01:56:08;98838.98;;;9.68;100.00
44979;BME280;67464;52.438;-1.904;2023-03-18T01:58:37;98841.43;;;9.24;100.00
44979;BME280;67464;52.438;-1.904;2023-03-18T02:01:02;98842.12;;;9.46;100.00
44979;BME280;67464;52.438;-1.904;2023-03-18T02:03:25;98840.31;;;9.35;100.00
44979;BME280;67464;52.438;-1.904;2023-03-18T02:05:50;98839.65;;;9.31;100.00
44979;BME280;67464;52.438;-1.904;2023-03-18T02:08:15;98841.39;;;9.54;100.00
44979;BME280;67464;52.438;-1.904;2023-03-18T02:10:41;98843.08;;;9.58;100.00
44979;BME280;67464;52.438;-1.904;2023-03-18T02:13:08;98846.16;;;9.87;100.00
44979;BME280;67464;52.438;-1.904;2023-03-18T02:15:33;98842.43;;;8.87;100.00
44979;BME280;67464;52.438;-1.904;2023-03-18T02:18:01;98841.83;;;9.43;100.00
44979;BME280;67464;52.438;-1.904;2023-03-18T02:20:32;98840.73;;;8.75;100.00
44979;BME280;67464;52.438;-1.904;2023-03-18T02:22:50;98837.82;;;8.46;100.00
44979;BME280;67464;52.438;-1.904;2023-03-18T02:25:21;98836.16;;;8.98;100.00
44979;BME280;67464;52.438;-1.904;2023-03-18T02:27:41;98836.81;;;9.69;100.00
44979;BME280;67464;52.438;-1.904;2023-03-18T02:30:07;98836.15;;;9.00;100.00
44979;BME280;67464;52.438;-1.904;2023-03-18T02:32:31;98835.12;;;9.50;100.00
44979;BME280;67464;52.438;-1.904;2023-03-18T02:34:55;98835.22;;;9.56;100.00
44979;BME280;67464;52.438;-1.904;2023-03-18T02:37:20;98838.47;;;8.22;100.00
44979;BME280;67464;52.438;-1.904;2023-03-18T02:39:45;98837.53;;;8.72;100.00
44979;BME280;67464;52.438;-1.904;2023-03-18T02:42:12;98839.23;;;9.56;100.00
44979;BME280;67464;52.438;-1.904;2023-03-18T02:44:38;98839.11;;;8.78;100.00
44979;BME280;67464;52.438;-1.904;2023-03-18T02:47:05;98839.49;;;9.33;100.00
44979;BME280;67464;52.438;-1.904;2023-03-18T02:49:27;98847.79;;;8.79;100.00
44979;BME280;67464;52.438;-1.904;2023-03-18T02:51:53;98843.52;;;8.44;100.00
44979;BME280;67464;52.438;-1.904;2023-03-18T02:54:19;98842.17;;;8.52;100.00
44979;BME280;67464;52.438;-1.904;2023-03-18T02:56:43;98849.88;;;8.05;100.00
44979;BME280;67464;52.438;-1.904;2023-03-18T02:59:08;98842.29;;;8.70;100.00
44979;BME280;67464;52.438;-1.904;2023-03-18T03:01:34;98843.80;;;8.67;100.00
44979;BME280;67464;52.438;-1.904;2023-03-18T03:03:58;98848.60;;;7.94;100.00
44979;BME280;67464;52.438;-1.904;2023-03-18T03:06:24;98849.29;;;8.46;100.00
44979;BME280;67464;52.438;-1.904;2023-03-18T03:08:49;98847.92;;;8.15;100.00
44979;BME280;67464;52.438;-1.904;2023-03-18T03:11:15;98840.27;;;8.78;100.00
44979;BME280;67464;52.438;-1.904;2023-03-18T03:13:41;98837.81;;;9.43;100.00
44979;BME280;67464;52.438;-1.904;2023-03-18T03:16:06;98834.44;;;9.16;100.00
44979;BME280;67464;52.438;-1.904;2023-03-18T03:18:31;98827.63;;;9.50;100.00
44979;BME280;67464;52.438;-1.904;2023-03-18T03:20:55;98827.68;;;9.98;100.00
44979;BME280;67464;52.438;-1.904;2023-03-18T03:23:21;98833.09;;;9.23;100.00
44979;BME280;67464;52.438;-1.904;2023-03-18T03:25:47;98834.56;;;8.74;100.00
44979;BME280;67464;52.438;-1.904;2023-03-18T03:28:12;98836.00;;;8.26;100.00
44979;BME280;67464;52.438;-1.904;2023-03-18T03:30:38;98838.48;;;8.20;100.00
44979;BME280;67464;52.438;-1.904;2023-03-18T03:33:03;98838.62;;;8.19;100.00
44979;BME280;67464;52.438;-1.904;2023-03-18T03:35:28;98837.86;;;8.49;100.00
44979;BME280;67464;52.438;-1.904;2023-03-18T03:37:54;98837.70;;;8.88;100.00
44979;BME280;67464;52.438;-1.904;2023-03-18T03:40:20;98844.67;;;8.47;100.00
44979;BME280;67464;52.438;-1.904;2023-03-18T03:42:46;98843.54;;;9.11;100.00
44979;BME280;67464;52.438;-1.904;2023-03-18T03:45:11;98842.17;;;8.98;100.00
44979;BME280;67464;52.438;-1.904;2023-03-18T03:47:36;98844.69;;;9.27;100.00
44979;BME280;67464;52.438;-1.904;2023-03-18T03:50:03;98845.21;;;10.12;100.00
44979;BME280;67464;52.438;-1.904;2023-03-18T03:52:28;98841.81;;;8.58;100.00
44979;BME280;67464;52.438;-1.904;2023-03-18T03:54:53;98842.97;;;9.53;100.00
44979;BME280;67464;52.438;-1.904;2023-03-18T03:57:18;98842.65;;;10.00;100.00
44979;BME280;67464;52.438;-1.904;2023-03-18T03:59:44;98842.95;;;9.29;100.00
44979;BME280;67464;52.438;-1.904;2023-03-18T04:02:10;98843.73;;;9.18;100.00
44979;BME280;67464;52.438;-1.904;2023-03-18T04:04:35;98845.92;;;8.57;100.00
44979;BME280;67464;52.438;-1.904;2023-03-18T04:07:01;98845.18;;;9.11;100.00
44979;BME280;67464;52.438;-1.904;2023-03-18T04:09:26;98846.57;;;9.36;100.00
44979;BME280;67464;52.438;-1.904;2023-03-18T04:11:51;98847.03;;;9.28;100.00
44979;BME280;67464;52.438;-1.904;2023-03-18T04:14:17;98846.61;;;8.85;100.00
44979;BME280;67464;52.438;-1.904;2023-03-18T04:16:42;98851.76;;;9.04;100.00
44979;BME280;67464;52.438;-1.904;2023-03-18T04:19:08;98855.72;;;8.73;100.00
44979;BME280;67464;52.438;-1.904;2023-03-18T04:21:33;98862.09;;;8.43;100.00
44979;BME280;67464;52.438;-1.904;2023-03-18T04:23:59;98856.80;;;9.06;100.00
44979;BME280;67464;52.438;-1.904;2023-03-18T04:26:24;98858.82;;;9.86;100.00
44979;BME280;67464;52.438;-1.904;2023-03-18T04:28:49;98863.02;;;8.68;100.00
44979;BME280;67464;52.438;-1.904;2023-03-18T04:31:14;98868.80;;;8.79;100.00
44979;BME280;67464;52.438;-1.904;2023-03-18T04:33:39;98871.90;;;8.09;100.00
44979;BME280;67464;52.438;-1.904;2023-03-18T04:36:05;98865.93;;;8.94;100.00
44979;BME280;67464;52.438;-1.904;2023-03-18T04:38:30;98867.02;;;9.42;100.00
44979;BME280;67464;52.438;-1.904;2023-03-18T04:40:55;98873.32;;;8.79;100.00
44979;BME280;67464;52.438;-1.904;2023-03-18T04:43:21;98875.70;;;8.59;100.00
44979;BME280;67464;52.438;-1.904;2023-03-18T04:45:47;98875.53;;;8.77;100.00
44979;BME280;67464;52.438;-1.904;2023-03-18T04:48:12;98876.83;;;9.69;100.00
44979;BME280;67464;52.438;-1.904;2023-03-18T04:50:38;98876.60;;;9.73;100.00
44979;BME280;67464;52.438;-1.904;2023-03-18T04:53:03;98881.44;;;10.09;100.00
44979;BME280;67464;52.438;-1.904;2023-03-18T04:55:29;98880.72;;;10.86;100.00
44979;BME280;67464;52.438;-1.904;2023-03-18T04:57:55;98884.74;;;9.90;100.00
44979;BME280;67464;52.438;-1.904;2023-03-18T05:00:22;98885.15;;;10.18;100.00
44979;BME280;67464;52.438;-1.904;2023-03-18T05:02:45;98890.24;;;9.57;100.00
44979;BME280;67464;52.438;-1.904;2023-03-18T05:05:12;98892.81;;;10.18;100.00
44979;BME280;67464;52.438;-1.904;2023-03-18T05:07:37;98887.82;;;11.16;100.00
44979;BME280;67464;52.438;-1.904;2023-03-18T05:10:02;98889.91;;;10.78;100.00
44979;BME280;67464;52.438;-1.904;2023-03-18T05:12:29;98881.93;;;11.23;98.72
44979;BME280;67464;52.438;-1.904;2023-03-18T05:14:54;98884.31;;;11.50;88.82
44979;BME280;67464;52.438;-1.904;2023-03-18T05:17:19;98883.90;;;12.47;82.47
44979;BME280;67464;52.438;-1.904;2023-03-18T05:19:46;98879.25;;;12.78;78.47
44979;BME280;67464;52.438;-1.904;2023-03-18T05:22:09;98878.45;;;12.79;75.66
44979;BME280;67464;52.438;-1.904;2023-03-18T05:24:34;98876.66;;;13.19;71.16
44979;BME280;67464;52.438;-1.904;2023-03-18T05:27:03;98872.80;;;13.66;67.10
44979;BME280;67464;52.438;-1.904;2023-03-18T05:29:27;98871.66;;;13.18;70.73
44979;BME280;67464;52.438;-1.904;2023-03-18T05:31:52;98873.27;;;12.13;77.97
44979;BME280;67464;52.438;-1.904;2023-03-18T05:34:16;98877.64;;;11.52;83.23
44979;BME280;67464;52.438;-1.904;2023-03-18T05:36:42;98876.93;;;11.37;87.07
44979;BME280;67464;52.438;-1.904;2023-03-18T05:39:07;98877.88;;;11.16;91.76
44979;BME280;67464;52.438;-1.904;2023-03-18T05:41:32;98877.86;;;11.22;91.86
44979;BME280;67464;52.438;-1.904;2023-03-18T05:43:59;98876.06;;;11.22;94.25
44979;BME280;67464;52.438;-1.904;2023-03-18T05:46:26;98883.94;;;11.00;98.07
44979;BME280;67464;52.438;-1.904;2023-03-18T05:48:49;98888.46;;;10.00;100.00
44979;BME280;67464;52.438;-1.904;2023-03-18T05:51:14;98888.31;;;9.90;100.00
44979;BME280;67464;52.438;-1.904;2023-03-18T05:53:45;98887.70;;;10.69;100.00
44979;BME280;67464;52.438;-1.904;2023-03-18T05:56:05;98896.88;;;9.89;100.00
44979;BME280;67464;52.438;-1.904;2023-03-18T05:58:30;98899.11;;;10.18;100.00
44979;BME280;67464;52.438;-1.904;2023-03-18T06:00:57;98898.74;;;9.23;100.00
44979;BME280;67464;52.438;-1.904;2023-03-18T06:03:21;98900.14;;;9.20;100.00
44979;BME280;67464;52.438;-1.904;2023-03-18T06:05:45;98903.47;;;9.31;100.00
44979;BME280;67464;52.438;-1.904;2023-03-18T06:08:11;98904.17;;;10.44;100.00
44979;BME280;67464;52.438;-1.904;2023-03-18T06:10:37;98906.97;;;10.33;100.00
44979;BME280;67464;52.438;-1.904;2023-03-18T06:13:01;98908.78;;;10.25;100.00
44979;BME280;67464;52.438;-1.904;2023-03-18T06:15:27;98909.39;;;9.73;100.00
44979;BME280;67464;52.438;-1.904;2023-03-18T06:17:52;98910.30;;;9.59;100.00
44979;BME280;67464;52.438;-1.904;2023-03-18T06:20:17;98912.35;;;10.96;100.00
44979;BME280;67464;52.438;-1.904;2023-03-18T06:22:43;98915.76;;;10.92;100.00
44979;BME280;67464;52.438;-1.904;2023-03-18T06:25:09;98914.73;;;11.82;97.65
44979;BME280;67464;52.438;-1.904;2023-03-18T06:27:33;98915.30;;;11.23;100.00
44979;BME280;67464;52.438;-1.904;2023-03-18T06:29:58;98923.59;;;10.41;100.00
44979;BME280;67464;52.438;-1.904;2023-03-18T06:32:24;98926.50;;;9.92;100.00
44979;BME280;67464;52.438;-1.904;2023-03-18T06:34:49;98925.99;;;10.97;100.00
44979;BME280;67464;52.438;-1.904;2023-03-18T06:37:15;98921.44;;;11.82;96.15
44979;BME280;67464;52.438;-1.904;2023-03-18T06:39:40;98926.26;;;10.91;99.25
44979;BME280;67464;52.438;-1.904;2023-03-18T06:42:06;98920.55;;;12.13;90.30
44979;BME280;67464;52.438;-1.904;2023-03-18T06:44:31;98925.70;;;12.31;87.11
44979;BME280;67464;52.438;-1.904;2023-03-18T06:46:57;98928.25;;;12.79;84.65
44979;BME280;67464;52.438;-1.904;2023-03-18T06:49:23;98929.25;;;12.98;81.31
44979;BME280;67464;52.438;-1.904;2023-03-18T06:51:49;98930.24;;;12.82;80.02
44979;BME280;67464;52.438;-1.904;2023-03-18T06:54:14;98928.05;;;13.30;77.59
44979;BME280;67464;52.438;-1.904;2023-03-18T06:56:39;98926.89;;;13.45;76.71
44979;BME280;67464;52.438;-1.904;2023-03-18T06:59:05;98930.88;;;13.42;75.96
44979;BME280;67464;52.438;-1.904;2023-03-18T07:01:31;98931.25;;;13.08;77.77
44979;BME280;67464;52.438;-1.904;2023-03-18T07:03:56;98933.38;;;13.32;75.77
44979;BME280;67464;52.438;-1.904;2023-03-18T07:06:21;98936.75;;;12.46;80.29
44979;BME280;67464;52.438;-1.904;2023-03-18T07:08:47;98939.22;;;12.59;82.85
44979;BME280;67464;52.438;-1.904;2023-03-18T07:11:12;98937.08;;;12.85;78.97
44979;BME280;67464;52.438;-1.904;2023-03-18T07:13:38;98938.29;;;12.70;80.62
44979;BME280;67464;52.438;-1.904;2023-03-18T07:16:04;98940.53;;;12.39;83.47
44979;BME280;67464;52.438;-1.904;2023-03-18T07:18:29;98943.54;;;11.39;95.50
44979;BME280;67464;52.438;-1.904;2023-03-18T07:20:55;98944.56;;;12.68;82.36
44979;BME280;67464;52.438;-1.904;2023-03-18T07:23:21;98946.91;;;12.65;81.41
44979;BME280;67464;52.438;-1.904;2023-03-18T07:25:46;98948.22;;;12.94;81.19
44979;BME280;67464;52.438;-1.904;2023-03-18T07:28:12;98948.26;;;12.84;78.45
44979;BME280;67464;52.438;-1.904;2023-03-18T07:30:37;98949.55;;;13.27;74.95
44979;BME280;67464;52.438;-1.904;2023-03-18T07:33:03;98958.87;;;10.30;100.00
44979;BME280;67464;52.438;-1.904;2023-03-18T07:35:28;98954.08;;;11.52;97.79
44979;BME280;67464;52.438;-1.904;2023-03-18T07:37:54;98958.62;;;11.93;93.19
44979;BME280;67464;52.438;-1.904;2023-03-18T07:40:20;98957.63;;;13.08;81.82
44979;BME280;67464;52.438;-1.904;2023-03-18T07:42:45;98958.47;;;13.15;79.05
44979;BME280;67464;52.438;-1.904;2023-03-18T07:45:11;98961.06;;;12.28;87.76
44979;BME280;67464;52.438;-1.904;2023-03-18T07:47:36;98961.66;;;11.85;98.14
44979;BME280;67464;52.438;-1.904;2023-03-18T07:50:02;98967.07;;;11.35;100.00
44979;BME280;67464;52.438;-1.904;2023-03-18T07:52:27;98964.10;;;11.19;100.00
44979;BME280;67464;52.438;-1.904;2023-03-18T07:54:53;98960.27;;;11.44;100.00
44979;BME280;67464;52.438;-1.904;2023-03-18T07:57:19;98958.15;;;11.74;100.00
44979;BME280;67464;52.438;-1.904;2023-03-18T07:59:44;98960.19;;;12.31;99.76
44979;BME280;67464;52.438;-1.904;2023-03-18T08:02:11;98961.95;;;12.44;100.00
44979;BME280;67464;52.438;-1.904;2023-03-18T08:04:36;98964.03;;;11.69;100.00
44979;BME280;67464;52.438;-1.904;2023-03-18T08:07:01;98967.36;;;11.63;100.00
44979;BME280;67464;52.438;-1.904;2023-03-18T08:09:27;98969.86;;;12.10;99.54
44979;BME280;67464;52.438;-1.904;2023-03-18T08:11:53;98973.11;;;12.01;100.00
44979;BME280;67464;52.438;-1.904;2023-03-18T08:14:18;98971.95;;;12.34;96.94
44979;BME280;67464;52.438;-1.904;2023-03-18T08:16:44;98977.14;;;12.72;96.79
44979;BME280;67464;52.438;-1.904;2023-03-18T08:19:11;98981.73;;;12.76;95.71
44979;BME280;67464;52.438;-1.904;2023-03-18T08:21:35;98985.30;;;12.07;100.00
44979;BME280;67464;52.438;-1.904;2023-03-18T08:24:05;98986.39;;;11.69;100.00
44979;BME280;67464;52.438;-1.904;2023-03-18T08:26:26;98989.45;;;11.52;100.00
44979;BME280;67464;52.438;-1.904;2023-03-18T08:28:51;98991.42;;;11.36;100.00
44979;BME280;67464;52.438;-1.904;2023-03-18T08:31:17;98988.94;;;12.29;100.00
44979;BME280;67464;52.438;-1.904;2023-03-18T08:33:43;98988.80;;;12.06;100.00
44979;BME280;67464;52.438;-1.904;2023-03-18T08:36:08;98985.76;;;13.29;96.70
44979;BME280;67464;52.438;-1.904;2023-03-18T08:38:34;98985.35;;;13.36;94.77
44979;BME280;67464;52.438;-1.904;2023-03-18T08:40:59;98987.06;;;12.97;98.62
44979;BME280;67464;52.438;-1.904;2023-03-18T08:43:25;98987.25;;;13.03;92.74
44979;BME280;67464;52.438;-1.904;2023-03-18T08:45:51;98989.01;;;12.78;95.43
44979;BME280;67464;52.438;-1.904;2023-03-18T08:48:16;98994.35;;;11.90;100.00
44979;BME280;67464;52.438;-1.904;2023-03-18T08:50:42;99001.60;;;11.41;100.00
44979;BME280;67464;52.438;-1.904;2023-03-18T08:53:08;98999.25;;;11.69;100.00
44979;BME280;67464;52.438;-1.904;2023-03-18T08:55:34;99001.25;;;12.04;100.00
44979;BME280;67464;52.438;-1.904;2023-03-18T08:57:59;98999.58;;;12.54;96.47
44979;BME280;67464;52.438;-1.904;2023-03-18T09:00:24;99004.82;;;11.60;100.00
44979;BME280;67464;52.438;-1.904;2023-03-18T09:02:49;98999.98;;;12.74;100.00
44979;BME280;67464;52.438;-1.904;2023-03-18T09:05:14;99001.38;;;12.47;99.29
44979;BME280;67464;52.438;-1.904;2023-03-18T09:07:39;99003.27;;;12.06;100.00
44979;BME280;67464;52.438;-1.904;2023-03-18T09:10:06;99012.78;;;10.81;100.00
44979;BME280;67464;52.438;-1.904;2023-03-18T09:12:31;99011.90;;;11.58;100.00
44979;BME280;67464;52.438;-1.904;2023-03-18T09:14:56;99011.79;;;11.52;100.00
44979;BME280;67464;52.438;-1.904;2023-03-18T09:17:21;99014.01;;;9.97;100.00
44979;BME280;67464;52.438;-1.904;2023-03-18T09:19:46;99012.97;;;10.99;100.00
44979;BME280;67464;52.438;-1.904;2023-03-18T09:22:12;99014.19;;;10.42;100.00
44979;BME280;67464;52.438;-1.904;2023-03-18T09:24:37;99013.26;;;11.06;100.00
44979;BME280;67464;52.438;-1.904;2023-03-18T09:27:03;99020.31;;;10.82;100.00
44979;BME280;67464;52.438;-1.904;2023-03-18T09:29:28;99021.15;;;11.21;100.00
44979;BME280;67464;52.438;-1.904;2023-03-18T09:31:54;99021.80;;;10.52;100.00
44979;BME280;67464;52.438;-1.904;2023-03-18T09:34:19;99012.27;;;11.33;100.00
44979;BME280;67464;52.438;-1.904;2023-03-18T09:36:45;99012.35;;;11.65;100.00
44979;BME280;67464;52.438;-1.904;2023-03-18T09:39:10;99012.54;;;13.03;100.00
44979;BME280;67464;52.438;-1.904;2023-03-18T09:41:45;99008.95;;;13.49;90.71
44979;BME280;67464;52.438;-1.904;2023-03-18T09:44:08;99013.42;;;12.72;93.02
44979;BME280;67464;52.438;-1.904;2023-03-18T09:46:33;99012.75;;;14.44;80.40
44979;BME280;67464;52.438;-1.904;2023-03-18T09:49:02;99012.21;;;14.28;80.01
44979;BME280;67464;52.438;-1.904;2023-03-18T09:51:28;99012.00;;;14.51;75.40
44979;BME280;67464;52.438;-1.904;2023-03-18T09:53:49;99016.60;;;12.02;87.17
44979;BME280;67464;52.438;-1.904;2023-03-18T09:56:13;99012.37;;;13.06;83.38
44979;BME280;67464;52.438;-1.904;2023-03-18T09:58:44;99013.10;;;13.96;82.31
44979;BME280;67464;52.438;-1.904;2023-03-18T10:01:02;99015.38;;;13.91;84.80
44979;BME280;67464;52.438;-1.904;2023-03-18T10:03:31;99020.00;;;12.91;89.91
44979;BME280;67464;52.438;-1.904;2023-03-18T10:05:55;99026.35;;;12.22;98.14
44979;BME280;67464;52.438;-1.904;2023-03-18T10:08:22;99031.47;;;11.26;100.00
44979;BME280;67464;52.438;-1.904;2023-03-18T10:10:44;99031.78;;;11.83;100.00
44979;BME280;67464;52.438;-1.904;2023-03-18T10:13:14;99032.38;;;11.52;100.00
44979;BME280;67464;52.438;-1.904;2023-03-18T10:15:38;99036.57;;;10.95;100.00
44979;BME280;67464;52.438;-1.904;2023-03-18T10:18:04;99038.88;;;11.42;100.00
44979;BME280;67464;52.438;-1.904;2023-03-18T10:20:32;99039.59;;;11.12;100.00
44979;BME280;67464;52.438;-1.904;2023-03-18T10:22:58;99043.65;;;10.83;100.00
44979;BME280;67464;52.438;-1.904;2023-03-18T10:25:24;99041.03;;;10.85;100.00
44979;BME280;67464;52.438;-1.904;2023-03-18T10:27:50;99038.69;;;10.08;100.00
44979;BME280;67464;52.438;-1.904;2023-03-18T10:30:18;99037.34;;;10.62;100.00
44979;BME280;67464;52.438;-1.904;2023-03-18T10:32:37;99030.10;;;12.73;96.82
44979;BME280;67464;52.438;-1.904;2023-03-18T10:35:07;99032.58;;;13.01;88.84
44979;BME280;67464;52.438;-1.904;2023-03-18T10:37:35;99034.43;;;12.45;85.95
44979;BME280;67464;52.438;-1.904;2023-03-18T10:39:50;99042.03;;;11.53;94.01
44979;BME280;67464;52.438;-1.904;2023-03-18T10:42:19;99042.96;;;12.47;92.91
44979;BME280;67464;52.438;-1.904;2023-03-18T10:44:40;99044.29;;;12.21;90.91
44979;BME280;67464;52.438;-1.904;2023-03-18T10:47:12;99043.73;;;12.32;92.73
44979;BME280;67464;52.438;-1.904;2023-03-18T10:49:35;99044.77;;;11.82;96.19
44979;BME280;67464;52.438;-1.904;2023-03-18T10:52:00;99048.06;;;11.72;95.15
44979;BME280;67464;52.438;-1.904;2023-03-18T10:54:26;99047.74;;;11.37;98.25
44979;BME280;67464;52.438;-1.904;2023-03-18T10:56:48;99051.69;;;11.38;99.33
44979;BME280;67464;52.438;-1.904;2023-03-18T10:59:15;99050.26;;;11.46;100.00
44979;BME280;67464;52.438;-1.904;2023-03-18T11:01:40;99049.03;;;10.75;100.00
44979;BME280;67464;52.438;-1.904;2023-03-18T11:04:09;99050.80;;;11.13;100.00
44979;BME280;67464;52.438;-1.904;2023-03-18T11:06:35;99048.51;;;11.76;95.29
44979;BME280;67464;52.438;-1.904;2023-03-18T11:09:03;99045.58;;;12.10;93.38
44979;BME280;67464;52.438;-1.904;2023-03-18T11:11:26;99052.29;;;12.24;90.29
44979;BME280;67464;52.438;-1.904;2023-03-18T11:13:49;99042.56;;;13.00;91.60
44979;BME280;67464;52.438;-1.904;2023-03-18T11:16:22;99038.90;;;13.96;73.17
44979;BME280;67464;52.438;-1.904;2023-03-18T11:18:43;99040.95;;;15.01;64.62
44979;BME280;67464;52.438;-1.904;2023-03-18T11:21:05;99036.80;;;14.81;66.70
44979;BME280;67464;52.438;-1.904;2023-03-18T11:23:32;99038.32;;;14.01;67.55
44979;BME280;67464;52.438;-1.904;2023-03-18T11:25:55;99041.47;;;15.12;66.35
44979;BME280;67464;52.438;-1.904;2023-03-18T11:28:22;99042.23;;;14.53;66.29
44979;BME280;67464;52.438;-1.904;2023-03-18T11:30:47;99040.56;;;14.02;67.37
44979;BME280;67464;52.438;-1.904;2023-03-18T11:33:13;99041.98;;;13.48;72.59
44979;BME280;67464;52.438;-1.904;2023-03-18T11:35:39;99044.04;;;13.86;69.35
44979;BME280;67464;52.438;-1.904;2023-03-18T11:38:02;99044.08;;;14.78;66.02
44979;BME280;67464;52.438;-1.904;2023-03-18T11:40:28;99041.41;;;15.24;63.88
44979;BME280;67464;52.438;-1.904;2023-03-18T11:42:55;99041.21;;;15.25;61.22
44979;BME280;67464;52.438;-1.904;2023-03-18T11:45:28;99035.14;;;16.97;58.43
44979;BME280;67464;52.438;-1.904;2023-03-18T11:47:44;99035.30;;;17.49;52.73
44979;BME280;67464;52.438;-1.904;2023-03-18T11:50:17;99041.10;;;16.08;54.70
44979;BME280;67464;52.438;-1.904;2023-03-18T11:52:41;99037.87;;;16.21;56.39
44979;BME280;67464;52.438;-1.904;2023-03-18T11:55:07;99046.49;;;14.52;56.97
44979;BME280;67464;52.438;-1.904;2023-03-18T11:57:30;99050.11;;;14.58;57.24
44979;BME280;67464;52.438;-1.904;2023-03-18T11:59:59;99049.86;;;15.57;58.39
44979;BME280;67464;52.438;-1.904;2023-03-18T12:02:27;99046.22;;;15.56;59.29
44979;BME280;67464;52.438;-1.904;2023-03-18T12:04:54;99043.41;;;16.12;56.75
44979;BME280;67464;52.438;-1.904;2023-03-18T12:07:18;99046.67;;;15.29;59.64
44979;BME280;67464;52.438;-1.904;2023-03-18T12:09:38;99037.62;;;16.27;55.71
44979;BME280;67464;52.438;-1.904;2023-03-18T12:12:06;99043.42;;;15.06;57.28
44979;BME280;67464;52.438;-1.904;2023-03-18T12:14:30;99046.62;;;15.78;57.20
44979;BME280;67464;52.438;-1.904;2023-03-18T12:16:57;99045.28;;;14.88;59.81
44979;BME280;67464;52.438;-1.904;2023-03-18T12:19:28;99045.43;;;14.96;56.77
44979;BME280;67464;52.438;-1.904;2023-03-18T12:21:50;99045.53;;;14.99;58.62
44979;BME280;67464;52.438;-1.904;2023-03-18T12:24:18;99043.64;;;15.56;56.97
44979;BME280;67464;52.438;-1.904;2023-03-18T12:26:35;99037.14;;;16.93;55.25
44979;BME280;67464;52.438;-1.904;2023-03-18T12:29:11;99038.28;;;17.33;52.62
44979;BME280;67464;52.438;-1.904;2023-03-18T12:31:35;99034.21;;;16.42;52.31
44979;BME280;67464;52.438;-1.904;2023-03-18T12:33:52;99041.06;;;16.12;52.62
44979;BME280;67464;52.438;-1.904;2023-03-18T12:36:19;99041.48;;;15.26;52.93
44979;BME280;67464;52.438;-1.904;2023-03-18T12:38:53;99040.39;;;16.14;53.98